createdAt,value
2018-07-02T00:00:10.044Z,0
2018-07-02T00:00:50.509Z,0
2018-07-02T00:01:30.975Z,0
2018-07-02T00:02:11.506Z,0
2018-07-02T00:02:52.024Z,0
2018-07-02T00:03:33.327Z,0
2018-07-02T00:04:13.856Z,0
2018-07-02T00:04:54.346Z,0
2018-07-02T00:05:34.831Z,0
2018-07-02T00:06:15.917Z,0
2018-07-02T00:06:56.435Z,0
2018-07-02T00:07:36.948Z,0
2018-07-02T00:08:17.406Z,0
2018-07-02T00:08:57.937Z,0
2018-07-02T00:09:38.444Z,0
2018-07-02T00:10:18.904Z,0
2018-07-02T00:10:59.443Z,0
2018-07-02T00:11:39.942Z,0
2018-07-02T00:12:20.416Z,0
2018-07-02T00:13:00.925Z,0
2018-07-02T00:13:41.418Z,0
2018-07-02T00:14:21.934Z,0
2018-07-02T00:15:03.413Z,0
2018-07-02T00:15:43.900Z,0
2018-07-02T00:16:24.366Z,0
2018-07-02T00:17:04.887Z,0
2018-07-02T00:17:45.408Z,0
2018-07-02T00:18:25.898Z,0
2018-07-02T00:19:06.427Z,0
2018-07-02T00:19:46.881Z,0
2018-07-02T00:20:27.369Z,0
2018-07-02T00:21:07.869Z,0
2018-07-02T00:21:48.369Z,0
2018-07-02T00:22:28.853Z,0
2018-07-02T00:23:09.372Z,0
2018-07-02T00:23:49.917Z,0
2018-07-02T00:24:31.151Z,0
2018-07-02T00:25:11.652Z,0
2018-07-02T00:25:52.179Z,0
2018-07-02T00:26:32.683Z,0
2018-07-02T00:27:13.129Z,0
2018-07-02T00:27:54.509Z,0
2018-07-02T00:28:35.869Z,0
2018-07-02T00:29:16.582Z,0
2018-07-02T00:29:58.005Z,0
2018-07-02T00:30:38.510Z,0
2018-07-02T00:31:19.051Z,0
2018-07-02T00:31:59.512Z,0
2018-07-02T00:32:39.992Z,0
2018-07-02T00:33:20.484Z,0
2018-07-02T00:34:00.992Z,0
2018-07-02T00:34:41.491Z,0
2018-07-02T00:35:21.991Z,0
2018-07-02T00:36:03.434Z,0
2018-07-02T00:36:43.927Z,0
2018-07-02T00:37:24.442Z,0
2018-07-02T00:38:04.960Z,0
2018-07-02T00:38:45.436Z,0
2018-07-02T00:39:25.940Z,0
2018-07-02T00:40:06.468Z,0
2018-07-02T00:40:46.968Z,0
2018-07-02T00:41:28.453Z,0
2018-07-02T00:42:08.976Z,0
2018-07-02T00:42:50.972Z,0
2018-07-02T00:43:31.436Z,0
2018-07-02T00:44:12.626Z,0
2018-07-02T00:44:53.755Z,0
2018-07-02T00:45:34.237Z,0
2018-07-02T00:46:14.794Z,0
2018-07-02T00:46:55.278Z,0
2018-07-02T00:47:35.813Z,0
2018-07-02T00:48:16.240Z,0
2018-07-02T00:48:56.768Z,0
2018-07-02T00:49:37.280Z,0
2018-07-02T00:50:17.766Z,0
2018-07-02T00:50:59.232Z,0
2018-07-02T00:51:39.778Z,0
2018-07-02T00:52:20.298Z,0
2018-07-02T00:53:00.814Z,0
2018-07-02T00:53:41.324Z,0
2018-07-02T00:54:21.793Z,0
2018-07-02T00:55:03.053Z,0
2018-07-02T00:55:44.943Z,0
2018-07-02T00:56:25.430Z,0
2018-07-02T00:57:05.948Z,0
2018-07-02T00:57:46.471Z,0
2018-07-02T00:58:26.982Z,0
2018-07-02T00:59:07.507Z,0
2018-07-02T00:59:48.025Z,0
2018-07-02T01:00:28.569Z,0
2018-07-02T01:01:10.023Z,0
2018-07-02T01:01:50.549Z,0
2018-07-02T01:02:31.000Z,0
2018-07-02T01:03:11.601Z,0
2018-07-02T01:03:53.787Z,0
2018-07-02T01:04:34.243Z,0
2018-07-02T01:05:14.779Z,0
2018-07-02T01:05:55.333Z,0
2018-07-02T01:06:35.814Z,0
2018-07-02T01:07:16.324Z,0
2018-07-02T01:07:56.791Z,0
2018-07-02T01:08:37.344Z,0
2018-07-02T01:09:17.791Z,0
2018-07-02T01:09:58.312Z,0
2018-07-02T01:10:38.817Z,0
2018-07-02T01:11:19.322Z,0
2018-07-02T01:12:00.534Z,0
2018-07-02T01:12:42.036Z,0
2018-07-02T01:13:22.546Z,0
2018-07-02T01:14:03.064Z,0
2018-07-02T01:14:43.571Z,0
2018-07-02T01:15:24.881Z,0
2018-07-02T01:16:05.398Z,0
2018-07-02T01:16:45.931Z,0
2018-07-02T01:17:26.424Z,0
2018-07-02T01:18:06.928Z,0
2018-07-02T01:18:47.479Z,0
2018-07-02T01:19:28.443Z,0
2018-07-02T01:20:08.958Z,0
2018-07-02T01:20:49.493Z,0
2018-07-02T01:21:29.950Z,0
2018-07-02T01:22:10.466Z,0
2018-07-02T01:22:50.944Z,0
2018-07-02T01:23:31.456Z,0
2018-07-02T01:24:12.879Z,0
2018-07-02T01:24:53.402Z,0
2018-07-02T01:25:33.881Z,0
2018-07-02T01:26:14.389Z,0
2018-07-02T01:26:54.907Z,0
2018-07-02T01:27:35.414Z,0
2018-07-02T01:28:15.941Z,0
2018-07-02T01:28:56.466Z,0
2018-07-02T01:29:36.956Z,0
2018-07-02T01:30:17.958Z,0
2018-07-02T01:30:58.478Z,0
2018-07-02T01:31:38.965Z,0
2018-07-02T01:32:19.464Z,0
2018-07-02T01:33:00.012Z,0
2018-07-02T01:33:40.514Z,0
2018-07-02T01:34:21.032Z,0
2018-07-02T01:35:01.544Z,0
2018-07-02T01:35:42.047Z,0
2018-07-02T01:36:22.556Z,0
2018-07-02T01:37:04.045Z,0
2018-07-02T01:37:46.272Z,0
2018-07-02T01:38:27.450Z,0
2018-07-02T01:39:08.546Z,0
2018-07-02T01:39:49.121Z,0
2018-07-02T01:40:30.364Z,0
2018-07-02T01:41:10.871Z,0
2018-07-02T01:41:51.394Z,0
2018-07-02T01:42:31.911Z,0
2018-07-02T01:43:13.411Z,0
2018-07-02T01:43:54.714Z,0
2018-07-02T01:44:35.235Z,0
2018-07-02T01:45:15.795Z,0
2018-07-02T01:45:56.299Z,0
2018-07-02T01:46:36.794Z,0
2018-07-02T01:47:18.194Z,0
2018-07-02T01:47:58.719Z,0
2018-07-02T01:48:39.239Z,0
2018-07-02T01:49:19.748Z,0
2018-07-02T01:50:00.262Z,0
2018-07-02T01:50:40.785Z,0
2018-07-02T01:51:21.292Z,0
2018-07-02T01:52:01.809Z,0
2018-07-02T01:52:42.312Z,0
2018-07-02T01:53:22.803Z,0
2018-07-02T01:54:03.338Z,0
2018-07-02T01:54:44.461Z,0
2018-07-02T01:55:24.973Z,0
2018-07-02T01:56:05.484Z,0
2018-07-02T01:56:46.881Z,0
2018-07-02T01:57:27.393Z,0
2018-07-02T01:58:07.898Z,0
2018-07-02T01:58:48.418Z,0
2018-07-02T01:59:28.927Z,0
2018-07-02T02:00:09.449Z,0
2018-07-02T02:00:49.980Z,0
2018-07-02T02:01:30.500Z,0
2018-07-02T02:02:11.566Z,0
2018-07-02T02:02:52.962Z,0
2018-07-02T02:03:33.488Z,0
2018-07-02T02:04:15.493Z,0
2018-07-02T02:04:55.956Z,0
2018-07-02T02:05:36.473Z,0
2018-07-02T02:06:17.001Z,0
2018-07-02T02:06:57.510Z,0
2018-07-02T02:07:38.010Z,0
2018-07-02T02:08:18.542Z,0
2018-07-02T02:08:59.046Z,0
2018-07-02T02:09:40.396Z,0
2018-07-02T02:10:20.926Z,0
2018-07-02T02:11:01.986Z,0
2018-07-02T02:11:42.460Z,0
2018-07-02T02:12:23.022Z,0
2018-07-02T02:13:03.516Z,0
2018-07-02T02:13:44.114Z,0
2018-07-02T02:14:24.585Z,0
2018-07-02T02:15:05.051Z,0
2018-07-02T02:15:45.567Z,0
2018-07-02T02:16:26.900Z,0
2018-07-02T02:17:07.386Z,0
2018-07-02T02:17:47.921Z,0
2018-07-02T02:18:28.405Z,0
2018-07-02T02:19:08.902Z,0
2018-07-02T02:19:49.491Z,0
2018-07-02T02:20:29.960Z,0
2018-07-02T02:21:11.387Z,0
2018-07-02T02:21:51.902Z,0
2018-07-02T02:22:33.286Z,0
2018-07-02T02:23:13.842Z,0
2018-07-02T02:23:55.292Z,0
2018-07-02T02:24:35.812Z,0
2018-07-02T02:25:16.329Z,0
2018-07-02T02:25:56.812Z,0
2018-07-02T02:26:37.902Z,0
2018-07-02T02:27:18.478Z,0
2018-07-02T02:27:59.915Z,0
2018-07-02T02:28:40.420Z,0
2018-07-02T02:29:21.793Z,0
2018-07-02T02:30:02.339Z,0
2018-07-02T02:30:43.496Z,0
2018-07-02T02:31:24.014Z,0
2018-07-02T02:32:04.675Z,0
2018-07-02T02:32:45.156Z,0
2018-07-02T02:33:25.630Z,0
2018-07-02T02:34:06.152Z,0
2018-07-02T02:34:46.660Z,0
2018-07-02T02:35:27.173Z,0
2018-07-02T02:36:07.685Z,0
2018-07-02T02:36:48.226Z,0
2018-07-02T02:37:29.534Z,0
2018-07-02T02:38:10.699Z,0
2018-07-02T02:38:53.068Z,0
2018-07-02T02:39:35.295Z,0
2018-07-02T02:40:15.762Z,0
2018-07-02T02:40:56.284Z,0
2018-07-02T02:41:36.801Z,0
2018-07-02T02:42:17.315Z,0
2018-07-02T02:42:58.419Z,0
2018-07-02T02:43:40.835Z,0
2018-07-02T02:44:21.312Z,0
2018-07-02T02:45:01.853Z,0
2018-07-02T02:45:42.349Z,0
2018-07-02T02:46:22.839Z,0
2018-07-02T02:47:03.335Z,0
2018-07-02T02:47:43.839Z,0
2018-07-02T02:48:24.324Z,0
2018-07-02T02:49:04.804Z,0
2018-07-02T02:49:45.368Z,0
2018-07-02T02:50:25.813Z,4
2018-07-02T02:51:06.349Z,4
2018-07-02T02:51:46.856Z,0
2018-07-02T02:52:28.559Z,0
2018-07-02T02:53:09.491Z,0
2018-07-02T02:53:50.750Z,0
2018-07-02T02:54:31.285Z,0
2018-07-02T02:55:12.715Z,4
2018-07-02T02:55:53.256Z,4
2018-07-02T02:56:33.732Z,0
2018-07-02T02:57:14.253Z,0
2018-07-02T02:57:54.742Z,4
2018-07-02T02:58:35.205Z,4
2018-07-02T02:59:15.766Z,0
2018-07-02T02:59:56.209Z,4
2018-07-02T03:00:37.245Z,4
2018-07-02T03:01:17.773Z,4
2018-07-02T03:01:58.216Z,4
2018-07-02T03:02:38.700Z,4
2018-07-02T03:03:19.734Z,8
2018-07-02T03:04:00.209Z,4
2018-07-02T03:04:40.695Z,4
2018-07-02T03:05:21.197Z,8
2018-07-02T03:06:01.675Z,8
2018-07-02T03:06:42.178Z,8
2018-07-02T03:07:23.525Z,8
2018-07-02T03:08:04.007Z,8
2018-07-02T03:08:44.495Z,8
2018-07-02T03:09:24.997Z,12
2018-07-02T03:10:05.497Z,8
2018-07-02T03:10:46.026Z,12
2018-07-02T03:11:26.519Z,12
2018-07-02T03:12:07.029Z,12
2018-07-02T03:12:48.411Z,16
2018-07-02T03:13:29.931Z,16
2018-07-02T03:14:10.432Z,16
2018-07-02T03:14:50.966Z,20
2018-07-02T03:15:32.344Z,16
2018-07-02T03:16:12.847Z,16
2018-07-02T03:16:54.999Z,20
2018-07-02T03:17:36.315Z,24
2018-07-02T03:18:16.843Z,24
2018-07-02T03:18:57.371Z,24
2018-07-02T03:19:37.863Z,24
2018-07-02T03:20:19.409Z,24
2018-07-02T03:21:00.845Z,28
2018-07-02T03:21:41.350Z,32
2018-07-02T03:22:22.838Z,36
2018-07-02T03:23:03.336Z,36
2018-07-02T03:23:44.823Z,36
2018-07-02T03:24:26.091Z,36
2018-07-02T03:25:06.581Z,40
2018-07-02T03:25:47.098Z,40
2018-07-02T03:26:27.593Z,44
2018-07-02T03:27:08.090Z,48
2018-07-02T03:27:48.604Z,48
2018-07-02T03:28:29.129Z,52
2018-07-02T03:29:10.533Z,56
2018-07-02T03:29:53.443Z,52
2018-07-02T03:30:33.930Z,56
2018-07-02T03:31:15.242Z,60
2018-07-02T03:31:56.329Z,60
2018-07-02T03:32:36.850Z,64
2018-07-02T03:33:17.360Z,72
2018-07-02T03:33:57.888Z,72
2018-07-02T03:34:38.380Z,72
2018-07-02T03:35:18.875Z,76
2018-07-02T03:35:59.388Z,80
2018-07-02T03:36:39.898Z,84
2018-07-02T03:37:20.408Z,84
2018-07-02T03:38:01.719Z,88
2018-07-02T03:38:42.232Z,92
2018-07-02T03:39:23.437Z,96
2018-07-02T03:40:03.961Z,96
2018-07-02T03:40:44.440Z,100
2018-07-02T03:41:24.947Z,104
2018-07-02T03:42:05.462Z,108
2018-07-02T03:42:45.983Z,108
2018-07-02T03:43:26.491Z,112
2018-07-02T03:44:07.052Z,116
2018-07-02T03:44:47.510Z,124
2018-07-02T03:45:28.044Z,124
2018-07-02T03:46:08.573Z,128
2018-07-02T03:46:49.047Z,132
2018-07-02T03:47:29.553Z,136
2018-07-02T03:48:10.051Z,140
2018-07-02T03:48:50.610Z,140
2018-07-02T03:49:31.167Z,148
2018-07-02T03:50:11.659Z,148
2018-07-02T03:50:52.149Z,152
2018-07-02T03:51:32.624Z,156
2018-07-02T03:52:13.123Z,160
2018-07-02T03:52:53.627Z,164
2018-07-02T03:53:34.159Z,168
2018-07-02T03:54:14.631Z,168
2018-07-02T03:54:55.113Z,172
2018-07-02T03:55:35.616Z,176
2018-07-02T03:56:16.113Z,184
2018-07-02T03:56:56.635Z,184
2018-07-02T03:57:37.171Z,188
2018-07-02T03:58:17.658Z,192
2018-07-02T03:58:58.157Z,196
2018-07-02T03:59:38.648Z,200
2018-07-02T04:00:19.165Z,204
2018-07-02T04:00:59.675Z,208
2018-07-02T04:01:40.204Z,212
2018-07-02T04:02:20.724Z,224
2018-07-02T04:03:01.238Z,228
2018-07-02T04:03:41.723Z,236
2018-07-02T04:04:22.258Z,240
2018-07-02T04:05:02.772Z,244
2018-07-02T04:05:44.088Z,248
2018-07-02T04:06:25.354Z,252
2018-07-02T04:07:06.847Z,264
2018-07-02T04:07:48.136Z,264
2018-07-02T04:08:28.663Z,296
2018-07-02T04:09:10.073Z,280
2018-07-02T04:09:51.383Z,280
2018-07-02T04:10:32.858Z,420
2018-07-02T04:11:13.345Z,840
2018-07-02T04:11:53.838Z,2104
2018-07-02T04:12:34.337Z,2004
2018-07-02T04:13:14.861Z,1116
2018-07-02T04:13:55.341Z,336
2018-07-02T04:14:35.868Z,292
2018-07-02T04:15:16.964Z,284
2018-07-02T04:15:58.384Z,280
2018-07-02T04:16:38.854Z,284
2018-07-02T04:17:19.411Z,288
2018-07-02T04:17:59.882Z,288
2018-07-02T04:18:40.407Z,292
2018-07-02T04:19:21.665Z,292
2018-07-02T04:20:02.918Z,296
2018-07-02T04:20:43.338Z,300
2018-07-02T04:21:23.768Z,304
2018-07-02T04:22:04.265Z,312
2018-07-02T04:22:44.810Z,320
2018-07-02T04:23:25.879Z,308
2018-07-02T04:24:07.281Z,312
2018-07-02T04:24:47.868Z,312
2018-07-02T04:25:28.493Z,316
2018-07-02T04:26:09.789Z,320
2018-07-02T04:26:51.155Z,324
2018-07-02T04:27:32.670Z,328
2018-07-02T04:28:13.980Z,336
2018-07-02T04:28:54.509Z,340
2018-07-02T04:29:34.972Z,356
2018-07-02T04:30:15.508Z,364
2018-07-02T04:30:56.028Z,388
2018-07-02T04:31:37.141Z,424
2018-07-02T04:32:19.094Z,400
2018-07-02T04:33:01.507Z,412
2018-07-02T04:33:42.033Z,380
2018-07-02T04:34:22.501Z,396
2018-07-02T04:35:03.016Z,472
2018-07-02T04:35:43.503Z,592
2018-07-02T04:36:24.023Z,628
2018-07-02T04:37:04.592Z,528
2018-07-02T04:37:45.115Z,400
2018-07-02T04:38:25.584Z,408
2018-07-02T04:39:06.121Z,452
2018-07-02T04:39:46.604Z,648
2018-07-02T04:40:27.068Z,1008
2018-07-02T04:41:08.465Z,1480
2018-07-02T04:41:49.495Z,1200
2018-07-02T04:42:30.025Z,796
2018-07-02T04:43:10.475Z,812
2018-07-02T04:43:52.633Z,2096
2018-07-02T04:44:33.136Z,3216
2018-07-02T04:45:14.543Z,4296
2018-07-02T04:45:55.623Z,6580
2018-07-02T04:46:37.540Z,5340
2018-07-02T04:47:18.074Z,1044
2018-07-02T04:47:58.580Z,708
2018-07-02T04:48:39.090Z,1084
2018-07-02T04:49:19.612Z,3072
2018-07-02T04:50:00.138Z,1084
2018-07-02T04:50:40.635Z,1024
2018-07-02T04:51:21.155Z,860
2018-07-02T04:52:01.632Z,600
2018-07-02T04:52:42.164Z,620
2018-07-02T04:53:23.259Z,444
2018-07-02T04:54:03.787Z,536
2018-07-02T04:54:44.309Z,676
2018-07-02T04:55:24.800Z,560
2018-07-02T04:56:05.315Z,1092
2018-07-02T04:56:45.821Z,1052
2018-07-02T04:57:26.333Z,1784
2018-07-02T04:58:07.588Z,1980
2018-07-02T04:58:48.068Z,2752
2018-07-02T04:59:28.591Z,4144
2018-07-02T05:00:09.977Z,960
2018-07-02T05:00:50.497Z,792
2018-07-02T05:01:31.008Z,660
2018-07-02T05:02:11.531Z,1868
2018-07-02T05:02:52.053Z,2280
2018-07-02T05:03:32.578Z,1576
2018-07-02T05:04:13.986Z,1236
2018-07-02T05:04:54.520Z,1108
2018-07-02T05:05:34.994Z,1592
2018-07-02T05:06:17.057Z,728
2018-07-02T05:06:57.677Z,520
2018-07-02T05:07:39.028Z,632
2018-07-02T05:08:19.659Z,656
2018-07-02T05:09:00.160Z,588
2018-07-02T05:09:40.700Z,548
2018-07-02T05:10:21.107Z,536
2018-07-02T05:11:01.646Z,568
2018-07-02T05:11:43.664Z,440
2018-07-02T05:12:24.175Z,496
2018-07-02T05:13:04.695Z,508
2018-07-02T05:13:45.228Z,540
2018-07-02T05:14:26.277Z,548
2018-07-02T05:15:06.804Z,464
2018-07-02T05:15:47.316Z,472
2018-07-02T05:16:28.803Z,468
2018-07-02T05:17:09.289Z,516
2018-07-02T05:17:49.766Z,972
2018-07-02T05:18:30.334Z,844
2018-07-02T05:19:11.662Z,1080
2018-07-02T05:19:52.174Z,784
2018-07-02T05:20:32.686Z,612
2018-07-02T05:21:13.219Z,580
2018-07-02T05:21:53.751Z,580
2018-07-02T05:22:34.235Z,792
2018-07-02T05:23:14.752Z,652
2018-07-02T05:23:56.000Z,1772
2018-07-02T05:24:36.491Z,2092
2018-07-02T05:25:17.017Z,2164
2018-07-02T05:25:57.516Z,2760
2018-07-02T05:26:37.990Z,5064
2018-07-02T05:27:19.305Z,5076
2018-07-02T05:27:59.766Z,3408
2018-07-02T05:28:40.273Z,732
2018-07-02T05:29:21.333Z,652
2018-07-02T05:30:01.274Z,632
2018-07-02T05:30:43.658Z,640
2018-07-02T05:31:24.232Z,744
2018-07-02T05:32:04.653Z,948
2018-07-02T05:32:45.181Z,992
2018-07-02T05:33:26.156Z,1336
2018-07-02T05:34:06.692Z,1236
2018-07-02T05:34:47.904Z,2012
2018-07-02T05:35:28.414Z,1808
2018-07-02T05:36:08.953Z,1336
2018-07-02T05:36:50.419Z,892
2018-07-02T05:37:30.882Z,760
2018-07-02T05:38:11.394Z,556
2018-07-02T05:38:51.934Z,564
2018-07-02T05:39:32.379Z,500
2018-07-02T05:40:12.903Z,512
2018-07-02T05:40:53.367Z,524
2018-07-02T05:41:33.887Z,564
2018-07-02T05:42:14.452Z,624
2018-07-02T05:42:54.927Z,492
2018-07-02T05:43:35.470Z,488
2018-07-02T05:44:17.518Z,496
2018-07-02T05:44:58.670Z,504
2018-07-02T05:45:39.200Z,520
2018-07-02T05:46:20.486Z,500
2018-07-02T05:47:02.476Z,612
2018-07-02T05:47:43.856Z,504
2018-07-02T05:48:24.329Z,520
2018-07-02T05:49:05.410Z,516
2018-07-02T05:49:46.574Z,496
2018-07-02T05:50:28.060Z,508
2018-07-02T05:51:08.562Z,516
2018-07-02T05:51:49.005Z,516
2018-07-02T05:52:29.509Z,524
2018-07-02T05:53:09.998Z,528
2018-07-02T05:53:50.501Z,532
2018-07-02T05:54:31.010Z,540
2018-07-02T05:55:12.418Z,544
2018-07-02T05:55:52.940Z,572
2018-07-02T05:56:33.397Z,560
2018-07-02T05:57:15.593Z,576
2018-07-02T05:57:57.073Z,600
2018-07-02T05:58:39.153Z,620
2018-07-02T05:59:20.570Z,620
2018-07-02T06:00:01.049Z,776
2018-07-02T06:00:41.641Z,1016
2018-07-02T06:01:23.004Z,1380
2018-07-02T06:02:04.537Z,1548
2018-07-02T06:02:45.111Z,1636
2018-07-02T06:03:25.675Z,2136
2018-07-02T06:04:06.142Z,2180
2018-07-02T06:04:48.489Z,2284
2018-07-02T06:05:28.979Z,2340
2018-07-02T06:06:09.575Z,2316
2018-07-02T06:06:50.656Z,2312
2018-07-02T06:07:31.205Z,2320
2018-07-02T06:08:12.520Z,2320
2018-07-02T06:08:53.511Z,2312
2018-07-02T06:09:33.540Z,2324
2018-07-02T06:10:14.806Z,2328
2018-07-02T06:10:56.045Z,2320
2018-07-02T06:11:37.133Z,2320
2018-07-02T06:12:17.572Z,2308
2018-07-02T06:12:59.624Z,2316
2018-07-02T06:13:40.198Z,2316
2018-07-02T06:14:20.717Z,2312
2018-07-02T06:15:03.715Z,2316
2018-07-02T06:15:44.173Z,2328
2018-07-02T06:16:24.721Z,2316
2018-07-02T06:17:05.363Z,2316
2018-07-02T06:17:45.762Z,2332
2018-07-02T06:18:26.256Z,2332
2018-07-02T06:19:06.772Z,2320
2018-07-02T06:19:47.341Z,2316
2018-07-02T06:20:27.794Z,2296
2018-07-02T06:21:08.313Z,2300
2018-07-02T06:21:49.689Z,2312
2018-07-02T06:22:30.317Z,2300
2018-07-02T06:23:10.833Z,2304
2018-07-02T06:23:51.540Z,2296
2018-07-02T06:24:32.020Z,2300
2018-07-02T06:25:12.637Z,2292
2018-07-02T06:25:53.328Z,2288
2018-07-02T06:26:33.818Z,2284
2018-07-02T06:27:14.311Z,2292
2018-07-02T06:27:54.789Z,2292
2018-07-02T06:28:35.989Z,2288
2018-07-02T06:29:16.422Z,2272
2018-07-02T06:29:56.985Z,2256
2018-07-02T06:30:38.202Z,2244
2018-07-02T06:31:18.640Z,2268
2018-07-02T06:31:59.268Z,2248
2018-07-02T06:32:39.744Z,2244
2018-07-02T06:33:21.154Z,2236
2018-07-02T06:34:01.649Z,2224
2018-07-02T06:34:42.871Z,2220
2018-07-02T06:35:23.884Z,2236
2018-07-02T06:36:04.362Z,2200
2018-07-02T06:36:44.951Z,2224
2018-07-02T06:37:26.116Z,2192
2018-07-02T06:38:07.451Z,2196
2018-07-02T06:38:48.028Z,2196
2018-07-02T06:39:28.502Z,2212
2018-07-02T06:40:09.075Z,2216
2018-07-02T06:40:49.629Z,2212
2018-07-02T06:41:30.717Z,2204
2018-07-02T06:42:11.213Z,2200
2018-07-02T06:42:52.001Z,2208
2018-07-02T06:43:32.402Z,2180
2018-07-02T06:44:12.908Z,2196
2018-07-02T06:44:53.425Z,2196
2018-07-02T06:45:33.911Z,2184
2018-07-02T06:46:14.425Z,2184
2018-07-02T06:46:54.871Z,2180
2018-07-02T06:47:36.154Z,2196
2018-07-02T06:48:16.613Z,2152
2018-07-02T06:48:57.142Z,2192
2018-07-02T06:49:37.773Z,2168
2018-07-02T06:50:18.221Z,2176
2018-07-02T06:50:59.337Z,2312
2018-07-02T06:51:39.837Z,1844
2018-07-02T06:52:20.337Z,3192
2018-07-02T06:53:00.948Z,4192
2018-07-02T06:53:41.335Z,4280
2018-07-02T06:54:21.884Z,4664
2018-07-02T06:55:03.152Z,5760
2018-07-02T06:55:43.649Z,5752
2018-07-02T06:56:25.078Z,5728
2018-07-02T06:57:05.573Z,3712
2018-07-02T06:57:46.087Z,5912
2018-07-02T06:58:27.356Z,6912
2018-07-02T06:59:07.839Z,6900
2018-07-02T06:59:50.742Z,6868
2018-07-02T07:00:31.292Z,6864
2018-07-02T07:01:11.874Z,6856
2018-07-02T07:01:53.209Z,6836
2018-07-02T07:02:33.782Z,6824
2018-07-02T07:03:14.949Z,6824
2018-07-02T07:03:55.440Z,6792
2018-07-02T07:04:35.952Z,6728
2018-07-02T07:05:16.460Z,6768
2018-07-02T07:05:56.970Z,6756
2018-07-02T07:06:37.521Z,6752
2018-07-02T07:07:17.951Z,6640
2018-07-02T07:07:58.485Z,6720
2018-07-02T07:08:39.062Z,6732
2018-07-02T07:09:19.479Z,6712
2018-07-02T07:09:59.968Z,6696
2018-07-02T07:10:40.511Z,6692
2018-07-02T07:11:21.000Z,6676
2018-07-02T07:12:01.552Z,6656
2018-07-02T07:12:42.022Z,6644
2018-07-02T07:13:22.539Z,6628
2018-07-02T07:14:03.684Z,6616
2018-07-02T07:14:44.239Z,6600
2018-07-02T07:15:25.431Z,6592
2018-07-02T07:16:05.947Z,6584
2018-07-02T07:16:46.403Z,6576
2018-07-02T07:17:27.525Z,6548
2018-07-02T07:18:08.647Z,6548
2018-07-02T07:18:49.121Z,6532
2018-07-02T07:19:29.744Z,6512
2018-07-02T07:20:11.209Z,6516
2018-07-02T07:20:51.764Z,6500
2018-07-02T07:21:33.206Z,6492
2018-07-02T07:22:13.802Z,6484
2018-07-02T07:22:54.271Z,6460
2018-07-02T07:23:35.244Z,6456
2018-07-02T07:24:15.735Z,6436
2018-07-02T07:24:56.245Z,6428
2018-07-02T07:25:36.699Z,6424
2018-07-02T07:26:17.180Z,6408
2018-07-02T07:26:58.638Z,6388
2018-07-02T07:27:39.212Z,6388
2018-07-02T07:28:19.602Z,6356
2018-07-02T07:29:00.193Z,6332
2018-07-02T07:29:40.619Z,6328
2018-07-02T07:30:21.171Z,6312
2018-07-02T07:31:01.647Z,6316
2018-07-02T07:31:43.104Z,6280
2018-07-02T07:32:23.578Z,6280
2018-07-02T07:33:04.030Z,6244
2018-07-02T07:33:44.564Z,6240
2018-07-02T07:34:25.663Z,6212
2018-07-02T07:35:06.121Z,6192
2018-07-02T07:35:46.625Z,6180
2018-07-02T07:36:27.891Z,6156
2018-07-02T07:37:08.406Z,6144
2018-07-02T07:37:48.925Z,6120
2018-07-02T07:38:29.401Z,6096
2018-07-02T07:39:09.896Z,6072
2018-07-02T07:39:50.392Z,6060
2018-07-02T07:40:30.858Z,6032
2018-07-02T07:41:11.439Z,6020
2018-07-02T07:41:51.947Z,5996
2018-07-02T07:42:32.420Z,5976
2018-07-02T07:43:12.938Z,5956
2018-07-02T07:43:54.973Z,5936
2018-07-02T07:44:35.463Z,5912
2018-07-02T07:45:15.975Z,5900
2018-07-02T07:45:56.519Z,5872
2018-07-02T07:46:37.024Z,5844
2018-07-02T07:47:17.571Z,5824
2018-07-02T07:47:58.641Z,5804
2018-07-02T07:48:39.179Z,5784
2018-07-02T07:49:20.552Z,5752
2018-07-02T07:50:02.090Z,5684
2018-07-02T07:50:44.241Z,5668
2018-07-02T07:51:24.749Z,5640
2018-07-02T07:52:05.291Z,5616
2018-07-02T07:52:45.847Z,5604
2018-07-02T07:53:27.239Z,5576
2018-07-02T07:54:07.774Z,5552
2018-07-02T07:54:48.607Z,5532
2018-07-02T07:55:29.102Z,5512
2018-07-02T07:56:09.605Z,5488
2018-07-02T07:56:50.177Z,5464
2018-07-02T07:57:30.630Z,5440
2018-07-02T07:58:11.685Z,5420
2018-07-02T07:58:52.285Z,5384
2018-07-02T07:59:33.055Z,5372
2018-07-02T08:00:13.460Z,5340
2018-07-02T08:00:53.839Z,5320
2018-07-02T08:01:34.956Z,5296
2018-07-02T08:02:16.247Z,5260
2018-07-02T08:02:56.793Z,5228
2018-07-02T08:03:37.344Z,5212
2018-07-02T08:04:17.751Z,5184
2018-07-02T08:04:58.325Z,5148
2018-07-02T08:05:38.901Z,5124
2018-07-02T08:06:19.438Z,5096
2018-07-02T08:06:59.970Z,5084
2018-07-02T08:07:40.586Z,5056
2018-07-02T08:08:21.657Z,5028
2018-07-02T08:09:02.238Z,4992
2018-07-02T08:09:42.718Z,4960
2018-07-02T08:10:23.590Z,4936
2018-07-02T08:11:04.975Z,4908
2018-07-02T08:11:45.555Z,4864
2018-07-02T08:12:26.118Z,4836
2018-07-02T08:13:06.647Z,4808
2018-07-02T08:13:47.570Z,4780
2018-07-02T08:14:28.692Z,4768
2018-07-02T08:15:09.918Z,4728
2018-07-02T08:15:51.659Z,4704
2018-07-02T08:16:32.350Z,4668
2018-07-02T08:17:12.769Z,4656
2018-07-02T08:17:53.281Z,4612
2018-07-02T08:18:33.770Z,4588
2018-07-02T08:19:14.405Z,4564
2018-07-02T08:19:54.837Z,4528
2018-07-02T08:20:36.668Z,4508
2018-07-02T08:21:17.183Z,4484
2018-07-02T08:21:57.707Z,4472
2018-07-02T08:22:38.187Z,4432
2018-07-02T08:23:18.715Z,4404
2018-07-02T08:24:01.066Z,4384
2018-07-02T08:24:42.264Z,4348
2018-07-02T08:25:22.745Z,4336
2018-07-02T08:26:03.263Z,4308
2018-07-02T08:26:43.753Z,4280
2018-07-02T08:27:24.237Z,4260
2018-07-02T08:28:04.750Z,4236
2018-07-02T08:28:45.293Z,4204
2018-07-02T08:29:25.721Z,4172
2018-07-02T08:30:06.202Z,4116
2018-07-02T08:30:46.754Z,4028
2018-07-02T08:31:27.213Z,3912
2018-07-02T08:32:08.690Z,3784
2018-07-02T08:32:49.336Z,3664
2018-07-02T08:33:30.592Z,3572
2018-07-02T08:34:11.143Z,3492
2018-07-02T08:34:51.719Z,3440
2018-07-02T08:35:32.103Z,3404
2018-07-02T08:36:12.707Z,3380
2018-07-02T08:36:53.205Z,3368
2018-07-02T08:37:33.737Z,3360
2018-07-02T08:38:14.882Z,3360
2018-07-02T08:38:55.397Z,3348
2018-07-02T08:39:35.907Z,3344
2018-07-02T08:40:16.561Z,3336
2018-07-02T08:40:56.894Z,3320
2018-07-02T08:41:37.429Z,3316
2018-07-02T08:42:17.908Z,3312
2018-07-02T08:42:59.286Z,3292
2018-07-02T08:43:40.676Z,3292
2018-07-02T08:44:21.173Z,3292
2018-07-02T08:45:01.654Z,3276
2018-07-02T08:45:42.157Z,3272
2018-07-02T08:46:22.686Z,3264
2018-07-02T08:47:03.244Z,3268
2018-07-02T08:47:43.719Z,3244
2018-07-02T08:48:24.886Z,3224
2018-07-02T08:49:05.381Z,3212
2018-07-02T08:49:46.772Z,3196
2018-07-02T08:50:27.284Z,3188
2018-07-02T08:51:08.500Z,3176
2018-07-02T08:51:49.006Z,3160
2018-07-02T08:52:29.487Z,3152
2018-07-02T08:53:11.671Z,3140
2018-07-02T08:53:52.185Z,3116
2018-07-02T08:54:32.710Z,3108
2018-07-02T08:55:13.225Z,3128
2018-07-02T08:55:54.511Z,3108
2018-07-02T08:56:35.038Z,3088
2018-07-02T08:57:15.555Z,3076
2018-07-02T08:57:56.087Z,3072
2018-07-02T08:58:36.671Z,3048
2018-07-02T08:59:17.665Z,3036
2018-07-02T08:59:58.235Z,3032
2018-07-02T09:00:39.090Z,3012
2018-07-02T09:01:19.502Z,3000
2018-07-02T09:02:00.039Z,2980
2018-07-02T09:02:41.262Z,2972
2018-07-02T09:03:22.761Z,2964
2018-07-02T09:04:03.283Z,2952
2018-07-02T09:04:43.810Z,2936
2018-07-02T09:05:24.334Z,2920
2018-07-02T09:06:04.858Z,2928
2018-07-02T09:06:46.149Z,2912
2018-07-02T09:07:26.617Z,2908
2018-07-02T09:08:07.340Z,2908
2018-07-02T09:08:47.955Z,2900
2018-07-02T09:09:28.489Z,2900
2018-07-02T09:10:09.126Z,2892
2018-07-02T09:10:49.658Z,2888
2018-07-02T09:11:30.139Z,2884
2018-07-02T09:12:10.653Z,2880
2018-07-02T09:12:51.134Z,2876
2018-07-02T09:13:31.655Z,2872
2018-07-02T09:14:12.698Z,2868
2018-07-02T09:14:53.186Z,2864
2018-07-02T09:15:33.709Z,2860
2018-07-02T09:16:14.225Z,2852
2018-07-02T09:16:54.705Z,2844
2018-07-02T09:17:35.213Z,2856
2018-07-02T09:18:16.648Z,2852
2018-07-02T09:18:57.174Z,2708
2018-07-02T09:19:38.643Z,2700
2018-07-02T09:20:19.101Z,2696
2018-07-02T09:21:00.700Z,2696
2018-07-02T09:21:41.216Z,2684
2018-07-02T09:22:21.718Z,2684
2018-07-02T09:23:02.180Z,2676
2018-07-02T09:23:42.738Z,2672
2018-07-02T09:24:23.263Z,2668
2018-07-02T09:25:03.774Z,2660
2018-07-02T09:25:45.111Z,2664
2018-07-02T09:26:25.632Z,2652